Fola, West Virginia
Current Conditions -  °F | °C
As of 5:54 AM on Wednesday 26 Nov 2014 (Local Time) from KCRW Reporting Station
Overcast Overcast  
Wind Chill: 38°   Ceiling: 7000
Heat Index: 38°   Visibility: 10mi
Dew Point: 29°   Wind: 0mph
Humidity: 70%   Direction: NA
Pressure: 30.02"   Gusts: NA
Location:  38.3787°N, 81.1092°W
Report Text: KCRW 261054Z 00000KT 10SM OVC070 03/M02 A3002 RMK AO2 SLP168 T00331017
Loading
Personal Weather Stations






























Interactive Weather Map New forecast layout! Learn more

10-Day Weather Forecast

Advertisements
Track Severe Weather on mobile